createdAt,value
2023-03-06T00:01:07.841Z,99765.91
2023-03-06T00:03:34.881Z,99762.50
2023-03-06T00:06:02.784Z,99764.22
2023-03-06T00:08:32.900Z,99761.97
2023-03-06T00:10:59.754Z,99765.66
2023-03-06T00:13:37.524Z,99757.63
2023-03-06T00:16:05.533Z,99747.72
2023-03-06T00:18:33.198Z,99758.41
2023-03-06T00:21:00.320Z,99764.63
2023-03-06T00:23:27.879Z,99755.59
2023-03-06T00:25:54.792Z,99762.09
2023-03-06T00:28:21.474Z,99752.88
2023-03-06T00:30:48.317Z,99752.88
2023-03-06T00:33:18.054Z,99754.22
2023-03-06T00:35:47.470Z,99748.63
2023-03-06T00:38:18.629Z,99747.28
2023-03-06T00:40:45.432Z,99745.50
2023-03-06T00:43:15.727Z,99741.31
2023-03-06T00:45:49.611Z,99741.66
2023-03-06T00:48:16.578Z,99739.81
2023-03-06T00:50:46.726Z,99749.22
2023-03-06T00:53:13.602Z,99746.38
2023-03-06T00:55:46.051Z,99738.03
2023-03-06T00:58:12.815Z,99740.66
2023-03-06T01:00:42.121Z,99740.22
2023-03-06T01:03:09.589Z,99739.41
2023-03-06T01:05:38.972Z,99736.19
2023-03-06T01:08:06.641Z,99729.22
2023-03-06T01:10:41.778Z,99721.88
2023-03-06T01:13:08.621Z,99726.53
2023-03-06T01:15:45.907Z,99709.59
2023-03-06T01:18:12.894Z,99714.31
2023-03-06T01:20:42.138Z,99714.03
2023-03-06T01:23:09.033Z,99720.34
2023-03-06T01:25:35.690Z,99714.38
2023-03-06T01:28:02.368Z,99715.34
2023-03-06T01:30:32.274Z,99719.66
2023-03-06T01:32:59.217Z,99711.28
2023-03-06T01:35:25.936Z,99709.78
2023-03-06T01:37:52.653Z,99712.00
2023-03-06T01:40:20.997Z,99711.38
2023-03-06T01:42:50.909Z,99711.50
2023-03-06T01:45:17.502Z,99710.34
2023-03-06T01:47:49.329Z,99702.34
2023-03-06T01:50:16.860Z,99705.75
2023-03-06T01:53:01.210Z,99711.59
2023-03-06T01:55:36.612Z,99698.72
2023-03-06T01:58:18.179Z,99702.66
2023-03-06T02:00:45.731Z,99696.69
2023-03-06T02:03:26.432Z,99691.69
2023-03-06T02:05:57.680Z,99688.38
2023-03-06T02:08:28.239Z,99682.31
2023-03-06T02:11:22.349Z,99684.31
2023-03-06T02:13:56.555Z,99674.09
2023-03-06T02:16:31.655Z,99681.09
2023-03-06T02:19:02.648Z,99672.38
2023-03-06T02:21:37.757Z,99672.13
2023-03-06T02:24:50.996Z,99664.84
2023-03-06T02:27:28.261Z,99664.25
2023-03-06T02:29:55.190Z,99656.72
2023-03-06T02:32:26.759Z,99658.31
2023-03-06T02:34:57.697Z,99659.28
2023-03-06T02:37:28.629Z,99659.84
2023-03-06T02:40:15.043Z,99657.91
2023-03-06T02:43:00.390Z,99657.91
2023-03-06T02:45:45.261Z,99656.38
2023-03-06T02:48:15.211Z,99655.44
2023-03-06T02:50:47.813Z,99647.84
2023-03-06T02:53:19.825Z,99642.78
2023-03-06T02:55:47.913Z,99649.56
2023-03-06T02:58:15.207Z,99646.94
2023-03-06T03:00:45.443Z,99648.13
2023-03-06T03:03:21.278Z,99646.72
2023-03-06T03:05:48.037Z,99637.69
2023-03-06T03:08:17.953Z,99636.19
2023-03-06T03:10:44.675Z,99648.25
2023-03-06T03:13:17.456Z,99639.41
2023-03-06T03:16:06.419Z,99636.66
2023-03-06T03:18:36.779Z,99627.53
2023-03-06T03:21:13.201Z,99631.09
2023-03-06T03:23:44.043Z,99626.78
2023-03-06T03:26:19.283Z,99625.38
2023-03-06T03:28:46.051Z,99618.69
2023-03-06T03:31:14.172Z,99613.28
2023-03-06T03:33:44.247Z,99610.84
2023-03-06T03:36:11.629Z,99611.09
2023-03-06T03:38:38.504Z,99611.09
2023-03-06T03:41:08.131Z,99599.50
2023-03-06T03:43:42.293Z,99596.97
2023-03-06T03:46:09.013Z,99599.41
2023-03-06T03:48:39.090Z,99595.84
2023-03-06T03:51:13.870Z,99590.47
2023-03-06T03:53:45.128Z,99592.84
2023-03-06T03:56:13.121Z,99581.25
2023-03-06T03:58:42.473Z,99581.16
2023-03-06T04:01:12.636Z,99585.38
2023-03-06T04:03:41.646Z,99581.81
2023-03-06T04:06:08.707Z,99578.78
2023-03-06T04:08:45.807Z,99575.00
2023-03-06T04:11:12.971Z,99577.84
2023-03-06T04:13:41.788Z,99573.50
2023-03-06T04:16:08.756Z,99581.34
2023-03-06T04:18:38.053Z,99571.25
2023-03-06T04:21:08.562Z,99579.34
2023-03-06T04:23:42.038Z,99579.47
2023-03-06T04:26:10.208Z,99575.41
2023-03-06T04:28:37.764Z,99578.88
2023-03-06T04:31:05.298Z,99578.44
2023-03-06T04:33:35.214Z,99573.50
2023-03-06T04:36:01.873Z,99570.56
2023-03-06T04:38:31.799Z,99575.69
2023-03-06T04:40:58.771Z,99566.81
2023-03-06T04:43:25.868Z,99568.59
2023-03-06T04:45:52.700Z,99563.63
2023-03-06T04:48:19.660Z,99567.09
2023-03-06T04:50:46.615Z,99557.50
2023-03-06T04:53:16.084Z,99562.03
2023-03-06T04:55:43.249Z,99556.75
2023-03-06T04:58:13.925Z,99553.25
2023-03-06T05:00:46.415Z,99544.19
2023-03-06T05:03:14.572Z,99546.56
2023-03-06T05:05:44.673Z,99550.72
2023-03-06T05:08:21.912Z,99538.66
2023-03-06T05:11:04.045Z,99536.69
2023-03-06T05:13:30.804Z,99528.00
2023-03-06T05:16:06.937Z,99529.81
2023-03-06T05:18:46.120Z,99534.72
2023-03-06T05:21:13.044Z,99532.13
2023-03-06T05:23:47.814Z,99543.91
2023-03-06T05:26:16.161Z,99543.63
2023-03-06T05:28:44.669Z,99547.41
2023-03-06T05:31:11.492Z,99540.78
2023-03-06T05:33:42.162Z,99544.16
2023-03-06T05:36:15.348Z,99535.94
2023-03-06T05:38:44.771Z,99538.38
2023-03-06T05:41:16.722Z,99530.75
2023-03-06T05:43:43.975Z,99534.06
2023-03-06T05:46:12.053Z,99519.28
2023-03-06T05:48:46.980Z,99521.03
2023-03-06T05:51:20.140Z,99519.44
2023-03-06T05:53:50.150Z,99527.47
2023-03-06T05:56:17.034Z,99527.56
2023-03-06T05:58:47.251Z,99527.97
2023-03-06T06:01:20.838Z,99521.75
2023-03-06T06:03:48.784Z,99524.81
2023-03-06T06:06:15.835Z,99526.22
2023-03-06T06:08:47.515Z,99524.72
2023-03-06T06:11:14.991Z,99528.00
2023-03-06T06:13:44.630Z,99516.25
2023-03-06T06:16:16.480Z,99520.84
2023-03-06T06:18:47.182Z,99521.06
2023-03-06T06:21:15.019Z,99518.22
2023-03-06T06:23:45.298Z,99519.13
2023-03-06T06:26:15.950Z,99526.03
2023-03-06T06:28:45.257Z,99526.97
2023-03-06T06:31:14.328Z,99531.59
2023-03-06T06:33:49.450Z,99526.97
2023-03-06T06:36:22.160Z,99536.66
2023-03-06T06:38:55.052Z,99525.81
2023-03-06T06:44:16.294Z,99525.69
2023-03-06T06:49:35.355Z,99527.19
2023-03-06T06:52:06.835Z,99526.31
2023-03-06T06:54:37.770Z,99524.72
2023-03-06T06:57:04.813Z,99522.38
2023-03-06T06:59:31.698Z,99527.03
2023-03-06T07:01:58.509Z,99522.50
2023-03-06T07:04:36.030Z,99526.69
2023-03-06T07:07:05.087Z,99531.47
2023-03-06T07:09:48.760Z,99523.56
2023-03-06T07:12:15.890Z,99523.22
2023-03-06T07:14:46.844Z,99520.16
2023-03-06T07:17:13.748Z,99525.47
2023-03-06T07:19:43.581Z,99529.03
2023-03-06T07:22:10.533Z,99520.69
2023-03-06T07:24:43.103Z,99523.75
2023-03-06T07:27:09.895Z,99519.59
2023-03-06T07:29:37.277Z,99520.19
2023-03-06T07:32:04.207Z,99525.94
2023-03-06T07:34:45.254Z,99527.78
2023-03-06T07:37:12.148Z,99524.06
2023-03-06T07:39:59.185Z,99538.59
2023-03-06T07:42:27.350Z,99528.78
2023-03-06T07:44:54.019Z,99538.41
2023-03-06T07:47:20.682Z,99542.53
2023-03-06T07:49:48.658Z,99540.59
2023-03-06T07:52:15.308Z,99533.72
2023-03-06T07:54:48.074Z,99544.44
2023-03-06T07:57:15.957Z,99538.97
2023-03-06T07:59:52.195Z,99538.56
2023-03-06T08:02:19.020Z,99548.81
2023-03-06T08:04:51.344Z,99540.44
2023-03-06T08:07:17.984Z,99545.13
2023-03-06T08:09:44.796Z,99544.56
2023-03-06T08:12:11.461Z,99553.13
2023-03-06T08:14:47.641Z,99547.75
2023-03-06T08:17:14.835Z,99552.34
2023-03-06T08:19:44.574Z,99554.44
2023-03-06T08:22:13.970Z,99559.81
2023-03-06T08:24:50.029Z,99557.16
2023-03-06T08:27:16.761Z,99561.44
2023-03-06T08:29:46.565Z,99562.91
2023-03-06T08:32:13.260Z,99549.81
2023-03-06T08:34:45.647Z,99550.00
2023-03-06T08:37:12.563Z,99547.41
2023-03-06T08:39:41.576Z,99548.88
2023-03-06T08:42:10.719Z,99552.63
2023-03-06T08:44:46.260Z,99565.38
2023-03-06T08:47:15.959Z,99555.13
2023-03-06T08:49:45.876Z,99561.03
2023-03-06T08:52:13.033Z,99559.53
2023-03-06T08:54:41.795Z,99566.28
2023-03-06T08:57:09.168Z,99561.97
2023-03-06T08:59:37.198Z,99565.34
2023-03-06T09:02:06.577Z,99556.88
2023-03-06T09:04:33.373Z,99561.06
2023-03-06T09:07:01.265Z,99558.81
2023-03-06T09:09:28.080Z,99564.00
2023-03-06T09:11:55.008Z,99560.47
2023-03-06T09:14:22.017Z,99558.56
2023-03-06T09:16:48.896Z,99551.25
2023-03-06T09:19:15.895Z,99556.88
2023-03-06T09:21:49.121Z,99557.69
2023-03-06T09:24:16.064Z,99561.53
2023-03-06T09:26:47.661Z,99562.91
2023-03-06T09:29:18.369Z,99562.97
2023-03-06T09:31:50.649Z,99566.34
2023-03-06T09:34:17.565Z,99567.00
2023-03-06T09:36:57.173Z,99562.53
2023-03-06T09:39:27.094Z,99561.72
2023-03-06T09:41:57.287Z,99557.13
2023-03-06T09:44:33.991Z,99562.44
2023-03-06T09:47:55.114Z,99563.34
2023-03-06T09:50:51.555Z,99561.41
2023-03-06T09:54:20.153Z,99561.47
2023-03-06T09:56:50.746Z,99560.38
2023-03-06T09:59:25.260Z,99558.78
2023-03-06T10:02:15.871Z,99557.66
2023-03-06T10:04:59.282Z,99555.09
2023-03-06T10:07:49.178Z,99559.16
2023-03-06T10:10:27.237Z,99556.44
2023-03-06T10:13:19.212Z,99537.56
2023-03-06T10:15:50.343Z,99539.22
2023-03-06T10:18:17.271Z,99545.34
2023-03-06T10:21:17.265Z,99540.34
2023-03-06T10:23:58.355Z,99550.44
2023-03-06T10:26:49.601Z,99543.94
2023-03-06T10:30:13.199Z,99538.88
2023-03-06T10:32:58.668Z,99553.56
2023-03-06T10:35:49.649Z,99545.31
2023-03-06T10:38:38.240Z,99554.31
2023-03-06T10:41:29.112Z,99542.06
2023-03-06T10:44:04.845Z,99551.72
2023-03-06T10:46:48.963Z,99554.16
2023-03-06T10:49:37.125Z,99560.81
2023-03-06T10:52:22.558Z,99545.22
2023-03-06T10:54:49.323Z,99545.50
2023-03-06T10:57:30.033Z,99544.06
2023-03-06T11:00:22.820Z,99538.66
2023-03-06T11:03:22.233Z,99542.75
2023-03-06T11:06:15.249Z,99542.75
2023-03-06T11:08:44.581Z,99540.56
2023-03-06T11:11:36.857Z,99543.19
2023-03-06T11:14:23.217Z,99545.78
2023-03-06T11:16:53.894Z,99539.75
2023-03-06T11:19:29.580Z,99533.84
2023-03-06T11:22:21.472Z,99536.00
2023-03-06T11:24:54.985Z,99531.28
2023-03-06T11:27:34.662Z,99528.47
2023-03-06T12:47:21.681Z,99488.19
2023-03-06T12:55:53.651Z,99477.28
2023-03-06T12:58:29.528Z,99481.75
2023-03-06T13:01:38.180Z,99482.63
2023-03-06T13:05:14.133Z,99473.50
2023-03-06T13:08:55.605Z,99474.81
2023-03-06T13:12:13.416Z,99470.69
2023-03-06T13:14:54.172Z,99455.59
2023-03-06T13:17:24.475Z,99463.16
2023-03-06T13:20:38.839Z,99464.13
2023-03-06T13:23:30.695Z,99463.16
2023-03-06T13:26:24.391Z,99465.44
2023-03-06T13:29:03.734Z,99457.03
2023-03-06T13:31:33.668Z,99466.94
2023-03-06T13:34:33.571Z,99454.22
2023-03-06T13:37:32.316Z,99463.59
2023-03-06T13:39:59.065Z,99459.09
2023-03-06T13:42:37.192Z,99459.09
2023-03-06T13:45:33.559Z,99454.50
2023-03-06T13:48:37.534Z,99448.38
2023-03-06T13:51:35.602Z,99448.66
2023-03-06T13:54:56.847Z,99458.59
2023-03-06T13:57:58.665Z,99451.50
2023-03-06T14:01:35.866Z,99455.91
2023-03-06T14:04:30.677Z,99447.84
2023-03-06T14:07:28.690Z,99450.22
2023-03-06T14:10:13.150Z,99441.81
2023-03-06T14:13:15.454Z,99443.16
2023-03-06T14:15:56.239Z,99437.47
2023-03-06T14:18:48.039Z,99442.44
2023-03-06T14:21:30.862Z,99446.97
2023-03-06T14:24:05.055Z,99441.19
2023-03-06T14:26:53.486Z,99446.69
2023-03-06T14:29:30.355Z,99438.97
2023-03-06T14:32:01.226Z,99441.09
2023-03-06T14:34:42.929Z,99433.94
2023-03-06T14:37:24.605Z,99437.28
2023-03-06T14:39:54.486Z,99435.16
2023-03-06T14:42:28.561Z,99426.84
2023-03-06T14:45:18.729Z,99432.47
2023-03-06T14:47:56.298Z,99436.69
2023-03-06T14:50:36.814Z,99434.69
2023-03-06T14:53:16.589Z,99435.41
2023-03-06T14:56:07.037Z,99433.19
2023-03-06T14:59:00.951Z,99426.91
2023-03-06T15:01:48.635Z,99426.50
2023-03-06T15:05:02.225Z,99426.84
2023-03-06T15:07:34.246Z,99417.38
2023-03-06T15:10:29.420Z,99419.22
2023-03-06T15:13:08.275Z,99416.34
2023-03-06T15:15:38.670Z,99415.13
2023-03-06T15:19:03.558Z,99411.84
2023-03-06T15:21:51.460Z,99412.94
2023-03-06T15:24:41.508Z,99417.53
2023-03-06T15:27:26.851Z,99410.78
2023-03-06T15:30:13.856Z,99417.94
2023-03-06T15:32:45.696Z,99409.19
2023-03-06T15:35:24.640Z,99405.09
2023-03-06T15:37:52.839Z,99400.63
2023-03-06T15:40:29.870Z,99398.06
2023-03-06T15:42:58.965Z,99399.13
2023-03-06T15:45:29.386Z,99402.34
2023-03-06T15:47:59.106Z,99392.78
2023-03-06T15:50:29.366Z,99399.38
2023-03-06T15:52:59.329Z,99403.09
2023-03-06T15:55:27.530Z,99398.66
2023-03-06T15:58:19.170Z,99397.03
2023-03-06T16:00:46.105Z,99393.31
2023-03-06T16:03:13.001Z,99391.94
2023-03-06T16:05:42.228Z,99386.91
2023-03-06T16:08:14.828Z,99391.41
2023-03-06T16:10:52.328Z,99387.22
2023-03-06T16:13:32.279Z,99384.56
2023-03-06T16:16:02.510Z,99377.38
2023-03-06T16:18:35.069Z,99377.25
2023-03-06T16:21:01.966Z,99374.72
2023-03-06T16:23:30.606Z,99380.91
2023-03-06T16:26:04.175Z,99375.53
2023-03-06T16:28:32.758Z,99380.72
2023-03-06T16:31:01.251Z,99375.53
2023-03-06T16:33:31.025Z,99369.47
2023-03-06T16:36:00.699Z,99368.31
2023-03-06T16:38:30.280Z,99368.00
2023-03-06T16:41:08.725Z,99372.19
2023-03-06T16:43:35.588Z,99366.72
2023-03-06T16:46:26.832Z,99373.53
2023-03-06T16:49:02.317Z,99366.22
2023-03-06T16:51:47.109Z,99368.72
2023-03-06T16:54:17.703Z,99375.16
2023-03-06T16:57:21.366Z,99369.38
2023-03-06T16:59:48.085Z,99363.88
2023-03-06T17:02:14.808Z,99356.28
2023-03-06T17:04:48.598Z,99358.38
2023-03-06T17:07:23.015Z,99360.06
2023-03-06T17:09:52.032Z,99356.69
2023-03-06T17:12:18.765Z,99351.88
2023-03-06T17:14:45.562Z,99344.50
2023-03-06T17:17:12.234Z,99351.47
2023-03-06T17:19:38.968Z,99350.41
2023-03-06T17:22:05.905Z,99359.47
2023-03-06T17:24:32.517Z,99353.06
2023-03-06T17:27:09.622Z,99359.75
2023-03-06T17:29:36.321Z,99364.50
2023-03-06T17:32:29.154Z,99356.88
2023-03-06T17:34:56.519Z,99358.25
2023-03-06T17:37:23.504Z,99361.06
2023-03-06T17:39:53.349Z,99363.59
2023-03-06T17:45:13.929Z,99363.22
2023-03-06T17:47:49.201Z,99358.78
2023-03-06T17:50:15.985Z,99352.16
2023-03-06T17:52:45.920Z,99357.53
2023-03-06T17:55:13.243Z,99350.22
2023-03-06T17:57:42.465Z,99349.50
2023-03-06T18:00:20.398Z,99345.53
2023-03-06T18:02:49.157Z,99347.00
2023-03-06T18:05:20.815Z,99349.09
2023-03-06T18:07:50.115Z,99351.84
2023-03-06T18:10:16.963Z,99339.34
2023-03-06T18:12:43.798Z,99336.72
2023-03-06T18:15:10.904Z,99331.31
2023-03-06T18:17:38.564Z,99325.66
2023-03-06T18:20:14.457Z,99334.00
2023-03-06T18:23:02.127Z,99331.38
2023-03-06T18:25:32.283Z,99328.09
2023-03-06T18:28:00.153Z,99329.91
2023-03-06T18:49:47.750Z,99303.34
2023-03-06T19:03:04.865Z,99279.97
2023-03-06T19:05:31.795Z,99276.03
2023-03-06T20:32:34.868Z,99114.78
2023-03-06T20:37:48.457Z,99111.38
2023-03-06T20:48:27.430Z,99100.28
2023-03-06T20:51:28.661Z,99091.81
2023-03-06T20:56:52.386Z,99078.88
2023-03-06T20:59:19.045Z,99079.00
2023-03-06T21:01:49.561Z,99072.03
2023-03-06T21:04:16.947Z,99054.00
2023-03-06T21:06:47.653Z,99047.91
2023-03-06T21:09:17.996Z,99049.22
2023-03-06T21:11:48.001Z,99044.75
2023-03-06T21:14:18.766Z,99027.38
2023-03-06T21:16:47.866Z,99032.00
2023-03-06T21:19:14.722Z,99022.34
2023-03-06T21:21:43.938Z,99015.22
2023-03-06T21:24:11.265Z,99008.81
2023-03-06T21:26:44.337Z,99003.94
2023-03-06T21:29:11.473Z,98993.47
2023-03-06T21:31:38.657Z,99000.72
2023-03-06T21:34:08.368Z,98995.97
2023-03-06T21:36:35.079Z,98992.94
2023-03-06T21:39:06.045Z,98972.94
2023-03-06T21:41:33.484Z,98971.13
2023-03-06T21:44:08.114Z,98966.53
2023-03-06T21:46:38.331Z,98963.44
2023-03-06T21:49:08.242Z,98954.75
2023-03-06T21:51:43.912Z,98945.09
2023-03-06T21:54:10.750Z,98946.81
2023-03-06T21:56:37.385Z,98946.53
2023-03-06T21:59:06.474Z,98933.56
2023-03-06T22:01:33.196Z,98916.22
2023-03-06T22:04:00.417Z,98918.75
2023-03-06T22:06:31.551Z,98923.34
2023-03-06T22:09:07.194Z,98908.66
2023-03-06T22:11:45.201Z,98893.72
2023-03-06T22:14:15.022Z,98886.34
2023-03-06T22:16:47.567Z,98886.34
2023-03-06T22:19:17.648Z,98876.56
2023-03-06T22:21:44.325Z,98870.31
2023-03-06T22:24:16.828Z,98866.53
2023-03-06T22:26:43.444Z,98867.25
2023-03-06T22:29:10.439Z,98855.91
2023-03-06T22:31:39.288Z,98846.81
2023-03-06T22:34:12.450Z,98844.56
2023-03-06T22:36:41.634Z,98831.47
2023-03-06T22:39:15.040Z,98823.63
2023-03-06T22:41:44.534Z,98829.78
2023-03-06T22:44:19.103Z,98827.84
2023-03-06T22:46:46.407Z,98812.16
2023-03-06T22:49:15.764Z,98808.38
2023-03-06T22:51:49.355Z,98806.72
2023-03-06T22:54:16.478Z,98804.19
2023-03-06T22:56:43.257Z,98796.50
2023-03-06T22:59:09.864Z,98787.69
2023-03-06T23:01:36.648Z,98778.03
2023-03-06T23:04:11.215Z,98770.59
2023-03-06T23:06:43.570Z,98772.72
2023-03-06T23:09:21.703Z,98767.81
2023-03-06T23:11:50.257Z,98765.28
2023-03-06T23:14:20.148Z,98760.66
2023-03-06T23:16:49.926Z,98739.28
2023-03-06T23:19:17.327Z,98735.78
2023-03-06T23:21:44.041Z,98722.50
2023-03-06T23:24:10.727Z,98720.28
2023-03-06T23:26:37.647Z,98716.75
2023-03-06T23:29:04.392Z,98709.66
2023-03-06T23:31:32.238Z,98706.13
2023-03-06T23:34:03.658Z,98698.59
2023-03-06T23:36:31.152Z,98696.22
2023-03-06T23:39:00.293Z,98686.72
2023-03-06T23:41:26.986Z,98679.47
2023-03-06T23:43:55.254Z,98672.91
2023-03-06T23:46:22.503Z,98657.13
2023-03-06T23:48:49.324Z,98662.91
2023-03-06T23:51:20.412Z,98655.91
2023-03-06T23:53:55.680Z,98647.41
2023-03-06T23:56:24.538Z,98641.66
2023-03-06T23:58:51.392Z,98628.53
